Time;durP1;ratioP1;P1;durP2;ratioP2;P2;SDS_P1;SDS_P2;PMS_P1;PMS_P2;Temp;Humidity;BMP_temperature;BMP_pressure;BME280_temperature;BME280_humidity;BME280_pressure;Samples;Min_cycle;Max_cycle;Signal;HPM_P1;HPM_P2
2021/05/28 00:00:22;;;;;;;9.30;7.57;;;;;;;7.96;100.00;96422.13;1048470;28;20036;-49
2021/05/28 00:00:52;;;;;;;10.35;7.75;;;;;;;7.93;100.00;96418.84;1048193;28;20027;-50
2021/05/28 00:01:23;;;;;;;9.93;7.55;;;;;;;7.94;100.00;96420.53;1048476;28;20058;-50
2021/05/28 00:01:53;;;;;;;8.43;7.05;;;;;;;7.97;100.00;96425.59;1048439;28;20021;-50
2021/05/28 00:02:24;;;;;;;11.27;7.95;;;;;;;7.94;100.00;96417.94;1048327;28;20017;-48
2021/05/28 00:02:55;;;;;;;8.88;7.72;;;;;;;7.93;100.00;96419.69;1048239;28;20078;-50
2021/05/28 00:03:25;;;;;;;10.75;7.07;;;;;;;7.93;100.00;96417.06;1048432;28;20009;-51
2021/05/28 00:03:56;;;;;;;9.25;7.63;;;;;;;7.92;100.00;96430.19;1048250;28;20012;-50
2021/05/28 00:04:27;;;;;;;8.70;7.78;;;;;;;7.90;100.00;96427.69;1048397;28;20024;-50
2021/05/28 00:04:58;;;;;;;8.07;7.28;;;;;;;7.90;100.00;96427.69;1048331;28;20024;-51
2021/05/28 00:05:29;;;;;;;8.20;7.00;;;;;;;7.92;100.00;96431.06;1048424;28;20024;-49
2021/05/28 00:05:59;;;;;;;10.00;6.72;;;;;;;7.94;100.00;96423.16;1048395;28;20392;-50
2021/05/28 00:06:30;;;;;;;9.43;8.10;;;;;;;7.88;100.00;96426.94;1048433;28;20017;-50
2021/05/28 00:07:01;;;;;;;9.07;7.55;;;;;;;7.83;100.00;96428.91;1048258;28;20043;-49
2021/05/28 00:07:32;;;;;;;9.82;7.35;;;;;;;7.85;100.00;96431.47;1048406;28;20028;-50
2021/05/28 00:08:03;;;;;;;9.15;7.45;;;;;;;7.86;100.00;96422.69;1048310;28;20304;-49
2021/05/28 00:08:34;;;;;;;9.57;7.32;;;;;;;7.88;100.00;96433.88;1048444;28;20020;-50
2021/05/28 00:09:05;;;;;;;8.98;7.53;;;;;;;7.88;100.00;96426.94;1048259;28;20289;-50
2021/05/28 00:09:36;;;;;;;10.00;6.72;;;;;;;7.89;100.00;96430.38;1048354;28;20481;-50
2021/05/28 00:10:08;;;;;;;7.55;6.70;;;;;;;7.89;100.00;96427.75;1048319;28;20250;-49
2021/05/28 00:10:38;;;;;;;9.35;8.07;;;;;;;7.85;100.00;96426.25;1048411;28;20020;-48
2021/05/28 00:11:09;;;;;;;8.68;7.63;;;;;;;7.84;100.00;96429.75;1048264;28;20409;-48
2021/05/28 00:11:40;;;;;;;10.30;8.63;;;;;;;7.82;100.00;96426.38;1048403;28;20023;-50
2021/05/28 00:12:11;;;;;;;12.02;8.60;;;;;;;7.80;100.00;96426.47;1048365;28;20435;-50
2021/05/28 00:12:41;;;;;;;9.18;8.02;;;;;;;7.76;100.00;96433.59;1048304;28;20107;-49
2021/05/28 00:13:12;;;;;;;9.63;8.63;;;;;;;7.75;100.00;96426.72;1047927;28;20020;-50
2021/05/28 00:13:43;;;;;;;11.73;7.82;;;;;;;7.74;100.00;96430.22;1043734;28;20025;-49
2021/05/28 00:14:14;;;;;;;11.02;8.00;;;;;;;7.73;100.00;96435.50;1043874;28;20017;-51
2021/05/28 00:14:45;;;;;;;11.18;8.15;;;;;;;7.72;100.00;96432.06;1044215;28;20085;-50
2021/05/28 00:15:16;;;;;;;10.85;8.60;;;;;;;7.73;100.00;96433.78;1047986;28;20309;-50
2021/05/28 00:15:46;;;;;;;10.85;8.35;;;;;;;7.71;100.00;96430.38;1048331;28;20029;-50
2021/05/28 00:16:17;;;;;;;13.55;8.05;;;;;;;7.68;100.00;96432.31;1048372;28;20029;-50
2021/05/28 00:16:48;;;;;;;12.13;8.70;;;;;;;7.69;100.00;96431.38;1048484;28;20031;-50
2021/05/28 00:17:19;;;;;;;9.90;8.43;;;;;;;7.54;100.00;96404.31;1048393;28;20255;-50
2021/05/28 00:17:50;;;;;;;10.93;9.48;;;;;;;7.65;100.00;96435.91;1048313;28;20105;-48
2021/05/28 00:18:20;;;;;;;9.90;8.32;;;;;;;7.63;100.00;96432.53;1048352;28;20021;-50
2021/05/28 00:18:52;;;;;;;11.40;8.57;;;;;;;7.65;100.00;96430.69;1048053;28;20021;-49
2021/05/28 00:19:23;;;;;;;9.52;8.52;;;;;;;7.62;100.00;96433.47;1047961;28;20547;-49
2021/05/28 00:19:54;;;;;;;10.50;8.50;;;;;;;7.63;100.00;96436.91;1048098;28;20380;-51
2021/05/28 00:20:24;;;;;;;12.57;8.35;;;;;;;7.61;100.00;96431.78;1048195;28;20040;-49
2021/05/28 00:20:56;;;;;;;9.70;7.15;;;;;;;7.65;100.00;96437.69;1048445;28;20382;-49
2021/05/28 00:21:26;;;;;;;12.13;8.20;;;;;;;7.66;100.00;96431.53;1048371;28;20025;-51
2021/05/28 00:21:57;;;;;;;9.93;8.13;;;;;;;7.67;100.00;96431.47;1048237;28;20755;-50
2021/05/28 00:22:28;;;;;;;10.68;7.85;;;;;;;7.67;100.00;96430.63;1048374;28;20025;-49
2021/05/28 00:22:58;;;;;;;9.82;8.63;;;;;;;7.66;100.00;96436.75;1048269;28;20017;-50
2021/05/28 00:23:38;;;;;;;12.30;9.00;;;;;;;7.66;100.00;96429.78;1048092;28;20024;-49
2021/05/28 00:24:09;;;;;;;11.02;9.02;;;;;;;7.67;100.00;96436.66;1048381;28;20509;-49
2021/05/28 00:24:40;;;;;;;10.65;9.55;;;;;;;7.66;100.00;96434.13;1048398;28;20036;-50
2021/05/28 00:25:11;;;;;;;9.68;8.38;;;;;;;7.65;100.00;96437.69;1048386;28;20070;-50
2021/05/28 00:25:42;;;;;;;8.95;7.75;;;;;;;7.63;100.00;96423.88;1048218;28;20027;-50
2021/05/28 00:26:13;;;;;;;9.27;8.30;;;;;;;7.63;100.00;96432.53;1048240;28;20262;-49
2021/05/28 00:26:43;;;;;;;9.40;8.27;;;;;;;7.61;100.00;96431.78;1048315;28;20031;-50
2021/05/28 00:27:14;;;;;;;10.25;9.05;;;;;;;7.61;100.00;96431.78;1048390;28;20046;-49
2021/05/28 00:27:45;;;;;;;11.43;8.95;;;;;;;7.59;100.00;96434.47;1048222;28;20497;-51
2021/05/28 00:28:16;;;;;;;11.15;9.25;;;;;;;7.60;100.00;96435.28;1048354;28;20036;-49
2021/05/28 00:28:49;;;;;;;11.50;9.40;;;;;;;7.61;100.00;96433.56;1048296;28;20027;-49
2021/05/28 00:29:20;;;;;;;11.73;8.73;;;;;;;7.58;100.00;96435.41;1048768;28;20805;-50
2021/05/28 00:29:51;;;;;;;10.13;9.10;;;;;;;7.52;100.00;96424.41;1048195;28;20312;-49
2021/05/28 00:30:21;;;;;;;10.38;9.18;;;;;;;7.59;100.00;96439.66;1048353;28;20009;-51
2021/05/28 00:30:52;;;;;;;9.95;8.50;;;;;;;7.58;100.00;96435.41;1048362;28;20470;-51
2021/05/28 00:31:23;;;;;;;10.27;8.73;;;;;;;7.56;100.00;96432.03;1048384;28;20024;-50
2021/05/28 00:31:54;;;;;;;9.35;8.35;;;;;;;7.55;100.00;96435.53;1048336;28;20046;-50
2021/05/28 00:32:24;;;;;;;10.10;9.05;;;;;;;7.51;100.00;96433.19;1048243;28;20320;-49
2021/05/28 00:32:55;;;;;;;11.65;10.07;;;;;;;7.48;100.00;96433.31;1048275;28;20083;-50
2021/05/28 00:33:26;;;;;;;12.30;10.18;;;;;;;7.51;100.00;96438.41;1048258;28;20025;-49
2021/05/28 00:33:57;;;;;;;10.75;9.65;;;;;;;7.46;100.00;96438.59;1048175;28;20020;-49
2021/05/28 00:34:28;;;;;;;11.20;9.05;;;;;;;7.47;100.00;96436.84;1048233;28;20257;-50
2021/05/28 00:34:59;;;;;;;9.75;8.75;;;;;;;7.46;100.00;96437.78;1048389;28;20040;-51
2021/05/28 00:35:29;;;;;;;12.05;8.82;;;;;;;7.42;100.00;96437.06;1048360;28;20239;-49
2021/05/28 00:36:00;;;;;;;10.30;8.88;;;;;;;7.44;100.00;96442.22;1048306;28;20020;-50
2021/05/28 00:36:31;;;;;;;11.13;9.10;;;;;;;7.45;100.00;96444.75;1048302;28;20025;-51
2021/05/28 00:37:02;;;;;;;10.77;8.73;;;;;;;7.44;100.00;96435.22;1048265;28;20020;-49
2021/05/28 00:37:33;;;;;;;11.73;10.32;;;;;;;7.41;100.00;96435.38;1048410;28;20043;-50
2021/05/28 00:38:03;;;;;;;13.18;10.48;;;;;;;7.38;100.00;96443.38;1048307;28;20755;-50
2021/05/28 00:38:34;;;;;;;11.70;8.57;;;;;;;7.38;100.00;96439.00;1048225;28;20017;-49
2021/05/28 00:39:05;;;;;;;10.77;8.50;;;;;;;7.37;100.00;96439.91;1048270;28;20429;-50
2021/05/28 00:39:36;;;;;;;8.90;7.97;;;;;;;7.37;100.00;96442.50;1048345;28;20024;-50
2021/05/28 00:40:07;;;;;;;10.95;8.57;;;;;;;7.39;100.00;96445.03;1048358;28;20605;-50
2021/05/28 00:40:38;;;;;;;11.02;7.97;;;;;;;7.39;100.00;96435.47;1048235;28;20009;-50
2021/05/28 00:41:09;;;;;;;11.13;9.07;;;;;;;7.40;100.00;96438.91;1048308;28;20269;-50
2021/05/28 00:41:40;;;;;;;11.75;9.27;;;;;;;7.41;100.00;96440.59;1048288;28;20013;-50
2021/05/28 00:42:11;;;;;;;10.93;9.52;;;;;;;7.41;100.00;96440.59;1048351;28;20262;-49
2021/05/28 00:42:42;;;;;;;10.73;8.80;;;;;;;7.37;100.00;96437.28;1048085;28;20448;-49
2021/05/28 00:43:12;;;;;;;11.50;9.35;;;;;;;7.36;100.00;96438.22;1048292;28;20501;-50
2021/05/28 00:43:43;;;;;;;9.90;8.02;;;;;;;7.39;100.00;96435.47;1048097;28;20326;-51
2021/05/28 00:44:20;;;;;;;9.60;8.23;;;;;;;7.40;100.00;96441.53;1048284;28;20470;-49
2021/05/28 00:44:51;;;;;;;11.43;8.93;;;;;;;7.37;100.00;96441.66;1048266;28;20016;-50
2021/05/28 00:45:21;;;;;;;9.27;8.23;;;;;;;7.35;100.00;96443.50;1048353;28;20349;-50
2021/05/28 00:45:52;;;;;;;11.40;8.82;;;;;;;7.31;100.00;96440.22;1048270;28;20016;-49
2021/05/28 00:46:26;;;;;;;10.10;9.05;;;;;;;7.29;100.00;96439.44;1048330;28;20020;-49
2021/05/28 00:46:57;;;;;;;10.30;7.75;;;;;;;7.30;100.00;96440.28;1048682;28;20025;-50
2021/05/28 00:47:27;;;;;;;10.45;9.23;;;;;;;7.30;100.00;96435.06;1049201;28;20257;-50
2021/05/28 00:47:58;;;;;;;11.25;8.85;;;;;;;7.29;100.00;96438.59;1049169;28;20020;-48
2021/05/28 00:48:29;;;;;;;9.43;8.45;;;;;;;7.28;100.00;96434.31;1049214;28;20434;-50
2021/05/28 00:49:00;;;;;;;10.50;8.13;;;;;;;7.29;100.00;96436.84;1048991;28;20530;-50
2021/05/28 00:49:30;;;;;;;9.32;6.93;;;;;;;7.32;100.00;96439.31;1049218;28;20102;-50
2021/05/28 00:50:02;;;;;;;9.15;8.20;;;;;;;7.30;100.00;96432.47;1049110;28;20818;-48
2021/05/28 00:50:32;;;;;;;7.75;7.00;;;;;;;7.29;100.00;96436.00;1049237;28;20141;-49
2021/05/28 00:51:04;;;;;;;9.77;7.57;;;;;;;7.26;100.00;96429.16;1049013;28;20255;-51
2021/05/28 00:51:34;;;;;;;9.60;6.63;;;;;;;7.26;100.00;96434.38;1049195;28;20033;-50
2021/05/28 00:52:05;;;;;;;9.93;8.45;;;;;;;7.24;100.00;96443.19;1049151;28;20791;-49
2021/05/28 00:52:36;;;;;;;12.07;8.35;;;;;;;7.23;100.00;96436.31;1049050;28;20016;-50
2021/05/28 00:53:07;;;;;;;13.65;8.60;;;;;;;7.21;100.00;96439.00;1048982;28;20251;-48
2021/05/28 00:53:37;;;;;;;10.25;8.20;;;;;;;7.24;100.00;96437.97;1049000;28;20087;-47
2021/05/28 00:54:09;;;;;;;10.48;8.65;;;;;;;7.25;100.00;96435.31;1049095;28;20021;-50
2021/05/28 00:54:40;;;;;;;11.85;9.27;;;;;;;7.22;100.00;96442.44;1049144;28;20047;-49
2021/05/28 00:55:12;;;;;;;9.40;7.88;;;;;;;7.20;100.00;96438.13;1049055;28;20771;-50
2021/05/28 00:55:43;;;;;;;12.07;8.55;;;;;;;7.22;100.00;96438.06;1049072;28;20009;-50
2021/05/28 00:56:14;;;;;;;12.32;9.00;;;;;;;7.18;100.00;96439.97;1049097;28;20337;-48
2021/05/28 00:56:45;;;;;;;10.10;8.68;;;;;;;7.16;100.00;96436.59;1049110;28;20061;-49
2021/05/28 00:57:16;;;;;;;10.98;8.90;;;;;;;7.14;100.00;96433.22;1048961;28;20254;-51
2021/05/28 00:57:46;;;;;;;12.02;8.75;;;;;;;7.15;100.00;96442.75;1049028;28;20266;-49
2021/05/28 00:58:17;;;;;;;10.68;8.10;;;;;;;7.19;100.00;96441.66;1048983;28;20016;-50
2021/05/28 00:58:48;;;;;;;11.23;8.95;;;;;;;7.21;100.00;96439.00;1049114;28;20020;-49
2021/05/28 00:59:19;;;;;;;11.25;8.45;;;;;;;7.18;100.00;96437.34;1049036;28;20056;-50
2021/05/28 00:59:51;;;;;;;11.13;8.90;;;;;;;7.16;100.00;96439.19;1049046;28;20104;-49
2021/05/28 01:00:25;;;;;;;8.85;7.53;;;;;;;7.17;100.00;96442.63;1049172;28;20621;-50
2021/05/28 01:00:56;;;;;;;10.50;7.68;;;;;;;7.19;100.00;96436.47;1048984;28;20312;-50
2021/05/28 01:01:27;;;;;;;9.73;7.72;;;;;;;7.20;100.00;96440.72;1048948;28;20296;-49
2021/05/28 01:01:58;;;;;;;10.05;7.63;;;;;;;7.20;100.00;96440.72;1049101;28;20009;-48
2021/05/28 01:02:29;;;;;;;10.55;7.57;;;;;;;7.21;100.00;96436.38;1049037;28;20601;-49
2021/05/28 01:02:59;;;;;;;10.13;7.95;;;;;;;7.23;100.00;96444.97;1049066;28;20016;-50
2021/05/28 01:03:30;;;;;;;11.45;7.55;;;;;;;7.23;100.00;96444.97;1048864;28;20024;-50
2021/05/28 01:04:01;;;;;;;11.30;7.35;;;;;;;7.25;100.00;96443.13;1049041;28;20013;-49
2021/05/28 01:04:32;;;;;;;8.95;7.00;;;;;;;7.27;100.00;96443.91;1049063;28;20024;-49
2021/05/28 01:05:03;;;;;;;11.07;8.15;;;;;;;7.28;100.00;96440.38;1049098;28;20490;-49
2021/05/28 01:05:34;;;;;;;10.18;7.45;;;;;;;7.29;100.00;96447.25;1048998;28;20231;-50
2021/05/28 01:06:04;;;;;;;10.80;7.97;;;;;;;7.29;100.00;96444.66;1048979;28;20259;-49
2021/05/28 01:06:35;;;;;;;8.88;7.25;;;;;;;7.33;100.00;96442.75;1049036;28;20017;-50
2021/05/28 01:07:06;;;;;;;9.80;6.80;;;;;;;7.39;100.00;96450.25;1048971;28;20016;-49
2021/05/28 01:07:37;;;;;;;9.60;7.78;;;;;;;7.38;100.00;96448.59;1048959;28;20012;-50
2021/05/28 01:08:07;;;;;;;9.90;8.40;;;;;;;7.37;100.00;96444.28;1048971;28;20463;-49
2021/05/28 01:08:38;;;;;;;8.35;6.75;;;;;;;7.35;100.00;96454.78;1049117;28;20016;-52
2021/05/28 01:09:09;;;;;;;10.57;8.15;;;;;;;7.34;100.00;96453.09;1049047;28;20009;-49
2021/05/28 01:09:40;;;;;;;11.45;8.00;;;;;;;7.33;100.00;96445.34;1048872;28;20061;-48
2021/05/28 01:10:12;;;;;;;9.65;8.10;;;;;;;7.29;100.00;96449.88;1048978;28;20255;-50
2021/05/28 01:10:43;;;;;;;9.27;8.05;;;;;;;7.36;100.00;96451.25;1049024;28;20297;-48
2021/05/28 01:11:13;;;;;;;9.27;7.85;;;;;;;7.39;100.00;96448.50;1049026;28;20320;-50
2021/05/28 01:11:44;;;;;;;11.38;7.38;;;;;;;7.41;100.00;96451.03;1048985;28;20493;-49
2021/05/28 01:12:15;;;;;;;9.57;8.07;;;;;;;7.44;100.00;96457.88;1048697;28;20062;-48
2021/05/28 01:12:46;;;;;;;9.15;8.13;;;;;;;7.45;100.00;96444.75;1048715;28;20016;-49
2021/05/28 01:13:16;;;;;;;10.90;8.70;;;;;;;7.47;100.00;96448.13;1048595;28;20425;-51
2021/05/28 01:13:47;;;;;;;9.43;7.45;;;;;;;7.48;100.00;96443.75;1044549;28;20028;-50
2021/05/28 01:14:18;;;;;;;11.40;7.85;;;;;;;7.47;100.00;96452.47;1048722;28;20024;-49
2021/05/28 01:14:50;;;;;;;10.23;9.07;;;;;;;7.47;100.00;96445.53;1048793;28;20062;-49
2021/05/28 01:15:21;;;;;;;9.60;8.60;;;;;;;7.48;100.00;96446.34;1048774;28;20391;-50
2021/05/28 01:15:51;;;;;;;11.23;7.78;;;;;;;7.46;100.00;96446.44;1048929;28;20253;-48
2021/05/28 01:16:22;;;;;;;9.85;7.80;;;;;;;7.46;100.00;96451.66;1049044;28;20013;-50
2021/05/28 01:16:53;;;;;;;9.30;8.05;;;;;;;7.48;100.00;96448.97;1049059;28;20148;-51
2021/05/28 01:17:24;;;;;;;11.55;8.93;;;;;;;7.46;100.00;96445.59;1049032;28;20348;-50
2021/05/28 01:17:54;;;;;;;11.80;9.13;;;;;;;7.40;100.00;96444.97;1048937;28;20081;-49
2021/05/28 01:18:25;;;;;;;12.95;9.00;;;;;;;7.42;100.00;96439.69;1048942;28;20024;-49
2021/05/28 01:18:58;;;;;;;11.45;7.85;;;;;;;7.43;100.00;96440.53;1048992;28;20074;-50
2021/05/28 01:19:28;;;;;;;11.18;8.07;;;;;;;7.40;100.00;96446.75;1049010;28;20100;-49
2021/05/28 01:19:59;;;;;;;9.15;8.05;;;;;;;7.42;100.00;96446.66;1048932;28;20239;-50
2021/05/28 01:20:30;;;;;;;12.02;8.13;;;;;;;7.39;100.00;96443.31;1048967;28;20386;-50
2021/05/28 01:21:01;;;;;;;8.40;7.30;;;;;;;7.39;100.00;96438.09;1049116;28;20027;-50
2021/05/28 01:21:32;;;;;;;8.23;6.85;;;;;;;7.38;100.00;96441.59;1049033;28;20253;-50
2021/05/28 01:22:05;;;;;;;10.32;8.52;;;;;;;7.38;100.00;96445.97;1048856;28;20017;-50
2021/05/28 01:22:37;;;;;;;10.75;8.00;;;;;;;7.37;100.00;96446.88;1049007;28;20729;-49
2021/05/28 01:23:08;;;;;;;10.02;7.78;;;;;;;7.33;100.00;96442.75;1048969;28;20773;-48
2021/05/28 01:23:38;;;;;;;11.25;8.02;;;;;;;7.32;100.00;96441.03;1048737;28;20258;-49
2021/05/28 01:24:10;;;;;;;9.93;8.00;;;;;;;7.31;100.00;96440.22;1048915;28;20016;-51
2021/05/28 01:24:41;;;;;;;8.77;7.53;;;;;;;7.30;100.00;96445.50;1048944;28;20078;-49
2021/05/28 01:25:13;;;;;;;15.13;9.32;;;;;;;7.27;100.00;96435.25;1049033;28;20264;-50
2021/05/28 01:25:43;;;;;;;11.40;9.23;;;;;;;7.30;100.00;96443.75;1049043;28;20253;-51
2021/05/28 01:26:14;;;;;;;9.15;8.13;;;;;;;7.32;100.00;96444.53;1048850;28;20743;-50
2021/05/28 01:26:45;;;;;;;10.45;8.88;;;;;;;7.30;100.00;96446.34;1048908;28;20328;-50
2021/05/28 01:27:17;;;;;;;10.98;8.15;;;;;;;7.28;100.00;96445.59;1049016;28;20012;-50
2021/05/28 01:27:48;;;;;;;9.77;8.60;;;;;;;7.28;100.00;96439.50;1048969;28;20024;-48
2021/05/28 01:28:19;;;;;;;12.38;9.73;;;;;;;7.20;100.00;96438.13;1048865;28;20251;-50
2021/05/28 01:28:50;;;;;;;12.10;8.73;;;;;;;7.21;100.00;96444.19;1048990;28;20017;-50
2021/05/28 01:29:20;;;;;;;10.38;9.15;;;;;;;7.22;100.00;96443.25;1049013;28;20009;-49
2021/05/28 01:29:51;;;;;;;10.10;9.07;;;;;;;7.22;100.00;96442.44;1048910;28;20386;-49
2021/05/28 01:30:23;;;;;;;11.25;9.02;;;;;;;7.23;100.00;96447.56;1048858;28;20043;-50
2021/05/28 01:30:53;;;;;;;10.60;8.38;;;;;;;7.22;100.00;96442.44;1048901;28;20039;-52
2021/05/28 01:31:24;;;;;;;14.85;8.90;;;;;;;7.19;100.00;96441.66;1049013;28;20242;-51
2021/05/28 01:31:55;;;;;;;12.80;10.13;;;;;;;7.17;100.00;96442.63;1048948;28;20470;-49
2021/05/28 01:32:25;;;;;;;13.50;10.02;;;;;;;7.17;100.00;96445.25;1048859;28;20016;-51
2021/05/28 01:32:56;;;;;;;10.68;8.82;;;;;;;7.15;100.00;96440.13;1048863;28;20478;-50
2021/05/28 01:33:27;;;;;;;16.08;9.32;;;;;;;7.19;100.00;96439.06;1048947;28;20021;-50
2021/05/28 01:33:58;;;;;;;9.30;8.23;;;;;;;7.23;100.00;96442.38;1048791;28;20013;-50
2021/05/28 01:34:29;;;;;;;10.93;8.35;;;;;;;7.23;100.00;96438.91;1048813;28;20325;-49
2021/05/28 01:34:59;;;;;;;10.48;8.90;;;;;;;7.23;100.00;96444.13;1048915;28;20134;-49
2021/05/28 01:35:30;;;;;;;11.32;9.68;;;;;;;7.23;100.00;96442.38;1049007;28;20390;-50
2021/05/28 01:36:00;;;;;;;9.90;8.82;;;;;;;7.20;100.00;96440.72;1048921;28;20023;-48
2021/05/28 01:36:31;;;;;;;15.88;9.48;;;;;;;7.17;100.00;96434.81;1048871;28;20096;-49
2021/05/28 01:37:02;;;;;;;9.60;8.27;;;;;;;7.16;100.00;96441.81;1048894;28;20016;-52
2021/05/28 01:37:33;;;;;;;10.10;9.00;;;;;;;7.16;100.00;96436.59;1049036;28;20239;-49
2021/05/28 01:38:05;;;;;;;9.57;8.52;;;;;;;7.15;100.00;96436.66;1048828;28;20017;-49
2021/05/28 01:38:36;;;;;;;9.80;8.73;;;;;;;7.15;100.00;96440.13;1048941;28;20025;-50
2021/05/28 01:39:07;;;;;;;11.02;8.32;;;;;;;7.13;100.00;96434.16;1048881;28;20763;-49
2021/05/28 01:39:48;;;;;;;11.93;8.88;;;;;;;7.09;100.00;96436.97;1048982;28;20021;-50
2021/05/28 01:40:20;;;;;;;12.40;8.25;;;;;;;7.02;100.00;96441.66;1049014;28;20091;-49
2021/05/28 01:40:51;;;;;;;9.25;8.25;;;;;;;7.03;100.00;96442.50;1048825;28;20263;-49
2021/05/28 01:41:28;;;;;;;12.80;9.98;;;;;;;7.01;100.00;96435.56;1048990;28;20243;-50
2021/05/28 01:41:59;;;;;;;11.82;7.97;;;;;;;6.99;100.00;96439.19;1048976;28;20724;-50
2021/05/28 01:42:29;;;;;;;11.35;8.27;;;;;;;6.95;100.00;96440.25;1048917;28;20553;-52
2021/05/28 01:43:00;;;;;;;10.05;8.30;;;;;;;6.93;100.00;96442.94;1048757;28;20043;-47
2021/05/28 01:43:31;;;;;;;11.18;8.98;;;;;;;6.92;100.00;96446.44;1048867;28;20017;-48
2021/05/28 01:44:10;;;;;;;11.77;9.23;;;;;;;6.91;100.00;96436.94;1048865;28;20025;-48
2021/05/28 01:44:42;;;;;;;14.45;11.45;;;;;;;6.90;100.00;96439.63;1049000;28;20502;-51
2021/05/28 01:45:13;;;;;;;14.20;11.50;;;;;;;6.91;100.00;96443.94;1048857;28;20262;-50
2021/05/28 01:45:44;;;;;;;13.15;10.38;;;;;;;6.88;100.00;96434.47;1048961;28;20619;-53
2021/05/28 01:46:15;;;;;;;12.13;9.40;;;;;;;6.89;100.00;96446.59;1048878;28;20314;-51
2021/05/28 01:46:48;;;;;;;10.98;9.73;;;;;;;6.88;100.00;96438.84;1048969;28;20560;-50
2021/05/28 01:47:19;;;;;;;11.18;9.98;;;;;;;6.84;100.00;96443.38;1048757;28;20258;-51
2021/05/28 01:47:51;;;;;;;10.50;9.23;;;;;;;6.79;100.00;96435.78;1048883;28;20325;-51
2021/05/28 01:48:22;;;;;;;11.70;9.60;;;;;;;6.78;100.00;96434.09;1048845;28;20035;-51
2021/05/28 01:48:52;;;;;;;11.90;10.40;;;;;;;6.79;100.00;96442.72;1048968;28;20270;-52
2021/05/28 01:49:23;;;;;;;11.85;9.02;;;;;;;6.78;100.00;96446.25;1048725;28;20094;-49
2021/05/28 01:49:54;;;;;;;14.85;9.95;;;;;;;6.75;100.00;96442.03;1048828;28;20042;-51
2021/05/28 01:50:24;;;;;;;12.52;10.55;;;;;;;6.76;100.00;96445.50;1048827;28;20052;-49
2021/05/28 01:50:55;;;;;;;11.45;9.13;;;;;;;6.75;100.00;96443.78;1048896;28;20020;-48
2021/05/28 01:51:26;;;;;;;10.20;9.10;;;;;;;6.74;100.00;96440.34;1048763;28;20154;-49
2021/05/28 01:51:56;;;;;;;11.63;9.38;;;;;;;6.75;100.00;96441.19;1048989;28;20482;-48
2021/05/28 01:52:27;;;;;;;10.75;9.23;;;;;;;6.72;100.00;96439.59;1048905;28;20255;-48
2021/05/28 01:52:58;;;;;;;11.70;9.52;;;;;;;6.72;100.00;96436.13;1048817;28;20032;-49
2021/05/28 01:53:29;;;;;;;11.90;9.15;;;;;;;6.71;100.00;96439.66;1048613;28;20107;-48
2021/05/28 01:54:00;;;;;;;10.70;9.05;;;;;;;6.71;100.00;96439.66;1048747;28;20063;-49
2021/05/28 01:54:33;;;;;;;11.60;9.95;;;;;;;6.70;100.00;96438.81;1051575;28;20023;-50
2021/05/28 01:55:05;;;;;;;15.25;10.25;;;;;;;6.66;100.00;96437.25;1053121;28;20242;-49
2021/05/28 01:55:35;;;;;;;15.65;12.25;;;;;;;6.64;100.00;96433.88;1052893;28;20257;-50
2021/05/28 01:56:06;;;;;;;12.57;10.23;;;;;;;6.64;100.00;96431.28;1053131;28;20254;-49
2021/05/28 01:56:37;;;;;;;11.68;10.48;;;;;;;6.64;100.00;96443.44;1053062;28;20020;-48
2021/05/28 01:57:08;;;;;;;12.23;9.13;;;;;;;6.64;100.00;96433.03;1053065;28;20031;-48
2021/05/28 01:57:39;;;;;;;12.43;10.30;;;;;;;6.62;100.00;96438.31;1052981;28;20250;-50
2021/05/28 01:58:12;;;;;;;13.77;10.18;;;;;;;6.60;100.00;96438.38;1052971;28;20632;-49
2021/05/28 01:58:43;;;;;;;12.27;8.48;;;;;;;6.61;100.00;96440.09;1052376;28;20087;-50
2021/05/28 01:59:25;;;;;;;13.57;10.82;;;;;;;6.60;100.00;96433.16;1053082;28;20239;-49
2021/05/28 01:59:56;;;;;;;14.30;10.85;;;;;;;6.60;100.00;96434.94;1052959;28;20019;-48
2021/05/28 02:00:26;;;;;;;12.57;9.15;;;;;;;6.59;100.00;96428.91;1053128;28;20238;-49
2021/05/28 02:00:58;;;;;;;13.80;10.68;;;;;;;6.60;100.00;96434.94;1052968;28;20020;-48
2021/05/28 02:01:30;;;;;;;11.52;9.23;;;;;;;6.58;100.00;96432.41;1053078;28;20023;-49
2021/05/28 02:02:01;;;;;;;11.43;9.82;;;;;;;6.58;100.00;96435.00;1052932;28;20269;-50
2021/05/28 02:02:31;;;;;;;15.07;10.90;;;;;;;6.57;100.00;96432.50;1053064;28;20724;-51
2021/05/28 02:03:03;;;;;;;14.38;11.45;;;;;;;6.58;100.00;96434.16;1053008;28;20040;-49
2021/05/28 02:03:33;;;;;;;11.40;9.07;;;;;;;6.59;100.00;96435.88;1052905;28;20473;-49
2021/05/28 02:04:05;;;;;;;10.50;9.23;;;;;;;6.59;100.00;96441.06;1052818;28;20332;-48
2021/05/28 02:04:35;;;;;;;10.95;9.43;;;;;;;6.60;100.00;96435.78;1053105;28;20478;-49
2021/05/28 02:05:07;;;;;;;11.35;9.77;;;;;;;6.60;100.00;96440.16;1053070;28;20252;-49
2021/05/28 02:05:38;;;;;;;12.45;9.45;;;;;;;6.59;100.00;96438.47;1053082;28;20377;-49
2021/05/28 02:06:09;;;;;;;12.32;9.70;;;;;;;6.60;100.00;96440.16;1052919;28;20269;-49
2021/05/28 02:06:40;;;;;;;10.95;9.05;;;;;;;6.60;100.00;96432.34;1053030;28;20530;-48
2021/05/28 02:07:11;;;;;;;11.05;8.93;;;;;;;6.61;100.00;96437.47;1053018;28;20124;-49
2021/05/28 02:07:42;;;;;;;12.48;9.02;;;;;;;6.63;100.00;96429.59;1053091;28;20249;-50
2021/05/28 02:08:13;;;;;;;14.55;9.38;;;;;;;6.62;100.00;96433.09;1052887;28;20781;-49
2021/05/28 02:08:44;;;;;;;15.48;8.75;;;;;;;6.60;100.00;96437.53;1053125;28;20015;-50
2021/05/28 02:09:14;;;;;;;12.38;10.30;;;;;;;6.58;100.00;96432.41;1053054;28;20250;-49
2021/05/28 02:09:45;;;;;;;12.30;10.20;;;;;;;6.58;100.00;96435.00;1052921;28;20234;-50
2021/05/28 02:10:16;;;;;;;10.50;9.40;;;;;;;6.58;100.00;96422.00;1052786;28;20077;-50
2021/05/28 02:10:47;;;;;;;13.05;11.43;;;;;;;6.57;100.00;96429.91;1053033;28;20045;-50
2021/05/28 02:11:18;;;;;;;11.70;10.23;;;;;;;6.56;100.00;96433.41;1052999;28;20028;-50
2021/05/28 02:11:48;;;;;;;14.85;12.10;;;;;;;6.58;100.00;96423.75;1052644;28;20341;-49
2021/05/28 02:12:21;;;;;;;15.82;11.20;;;;;;;6.59;100.00;96428.06;1052534;28;20489;-49
2021/05/28 02:12:52;;;;;;;12.35;10.75;;;;;;;6.60;100.00;96432.34;1052637;28;20412;-50
2021/05/28 02:13:23;;;;;;;17.95;12.52;;;;;;;6.59;100.00;96428.06;1048930;28;20289;-51
2021/05/28 02:13:54;;;;;;;15.90;12.50;;;;;;;6.54;100.00;96427.44;1052495;28;20288;-49
2021/05/28 02:14:26;;;;;;;15.80;11.82;;;;;;;6.56;100.00;96436.00;1052494;28;20618;-49
2021/05/28 02:14:58;;;;;;;16.63;12.48;;;;;;;6.53;100.00;96429.19;1052704;28;20323;-49
2021/05/28 02:15:29;;;;;;;15.88;10.88;;;;;;;6.53;100.00;96423.13;1053000;28;20528;-49
2021/05/28 02:16:00;;;;;;;16.02;12.80;;;;;;;6.53;100.00;96428.31;1052976;28;20271;-50
2021/05/28 02:16:33;;;;;;;17.77;13.63;;;;;;;6.58;100.00;96428.97;1052818;28;20024;-49
2021/05/28 02:17:04;;;;;;;18.63;13.20;;;;;;;6.60;100.00;96433.16;1052931;28;20022;-49
2021/05/28 02:17:35;;;;;;;18.42;13.90;;;;;;;6.60;100.00;96430.56;1052662;28;20265;-50
2021/05/28 02:18:06;;;;;;;13.45;11.70;;;;;;;6.60;100.00;96427.97;1052640;28;20020;-50
2021/05/28 02:18:36;;;;;;;15.00;11.95;;;;;;;6.58;100.00;96434.16;1052557;28;20024;-50
2021/05/28 02:19:08;;;;;;;13.07;11.05;;;;;;;6.54;100.00;96430.03;1052689;28;20035;-49
2021/05/28 02:19:39;;;;;;;15.45;10.23;;;;;;;6.55;100.00;96424.75;1052994;28;20142;-49
2021/05/28 02:20:11;;;;;;;15.55;12.40;;;;;;;6.55;100.00;96431.69;1052972;28;20666;-50
2021/05/28 02:20:42;;;;;;;15.48;13.10;;;;;;;6.55;100.00;96436.91;1052807;28;20393;-51
2021/05/28 02:21:12;;;;;;;18.35;13.05;;;;;;;6.54;100.00;96430.88;1052889;28;20249;-50
2021/05/28 02:21:43;;;;;;;15.85;12.98;;;;;;;6.53;100.00;96431.78;1052984;28;20020;-50
2021/05/28 02:22:14;;;;;;;13.50;12.10;;;;;;;6.59;100.00;96435.88;1052954;28;20412;-50
2021/05/28 02:22:44;;;;;;;12.35;10.82;;;;;;;6.60;100.00;96434.94;1052789;28;20012;-49
2021/05/28 02:23:15;;;;;;;12.30;10.70;;;;;;;6.62;100.00;96435.72;1052981;28;20012;-49
2021/05/28 02:23:46;;;;;;;16.38;11.57;;;;;;;6.61;100.00;96434.88;1052716;28;20012;-49
2021/05/28 02:24:17;;;;;;;12.63;11.30;;;;;;;6.64;100.00;96433.03;1053029;28;20034;-48
2021/05/28 02:24:48;;;;;;;15.70;11.32;;;;;;;6.64;100.00;96433.03;1052761;28;20269;-50
2021/05/28 02:25:19;;;;;;;13.40;9.88;;;;;;;6.63;100.00;96437.41;1052948;28;20019;-50